sensor_id;sensor_type;location;lat;lon;timestamp;P1;durP1;ratioP1;P2;durP2;ratioP2
24715;SDS011;12822;50.124;8.678;2022-11-15T10:46:33;9.13;;;4.68;;
24715;SDS011;12822;50.124;8.678;2022-11-15T10:54:49;11.07;;;5.07;;
24715;SDS011;12822;50.124;8.678;2022-11-15T10:57:21;11.95;;;4.75;;
24715;SDS011;12822;50.124;8.678;2022-11-15T10:59:49;8.75;;;5.15;;
24715;SDS011;12822;50.124;8.678;2022-11-15T11:02:32;8.02;;;4.75;;
24715;SDS011;12822;50.124;8.678;2022-11-15T11:04:59;8.65;;;4.80;;
24715;SDS011;12822;50.124;8.678;2022-11-15T11:07:29;11.10;;;5.20;;
24715;SDS011;12822;50.124;8.678;2022-11-15T11:09:59;10.82;;;5.15;;
24715;SDS011;12822;50.124;8.678;2022-11-15T11:12:27;9.73;;;4.95;;
24715;SDS011;12822;50.124;8.678;2022-11-15T11:14:54;9.25;;;5.88;;
24715;SDS011;12822;50.124;8.678;2022-11-15T11:17:30;8.23;;;5.00;;
24715;SDS011;12822;50.124;8.678;2022-11-15T11:20:15;9.32;;;5.25;;
24715;SDS011;12822;50.124;8.678;2022-11-15T11:28:32;8.15;;;4.05;;
24715;SDS011;12822;50.124;8.678;2022-11-15T11:31:14;12.75;;;4.43;;
24715;SDS011;12822;50.124;8.678;2022-11-15T11:36:18;8.45;;;4.32;;
24715;SDS011;12822;50.124;8.678;2022-11-15T11:38:59;7.75;;;4.57;;
24715;SDS011;12822;50.124;8.678;2022-11-15T11:46:41;7.05;;;3.80;;
24715;SDS011;12822;50.124;8.678;2022-11-15T11:49:10;8.13;;;4.25;;
24715;SDS011;12822;50.124;8.678;2022-11-15T11:51:38;9.02;;;4.38;;
24715;SDS011;12822;50.124;8.678;2022-11-15T11:54:08;8.80;;;3.97;;
24715;SDS011;12822;50.124;8.678;2022-11-15T11:56:36;8.00;;;4.50;;
24715;SDS011;12822;50.124;8.678;2022-11-15T12:01:42;9.55;;;4.28;;
24715;SDS011;12822;50.124;8.678;2022-11-15T12:04:29;6.45;;;3.83;;
24715;SDS011;12822;50.124;8.678;2022-11-15T12:09:24;9.23;;;4.35;;
24715;SDS011;12822;50.124;8.678;2022-11-15T12:14:35;8.48;;;3.88;;
24715;SDS011;12822;50.124;8.678;2022-11-15T12:17:04;8.32;;;3.78;;
24715;SDS011;12822;50.124;8.678;2022-11-15T12:19:31;10.48;;;4.43;;
24715;SDS011;12822;50.124;8.678;2022-11-15T12:22:11;8.40;;;4.20;;
24715;SDS011;12822;50.124;8.678;2022-11-15T12:24:42;9.85;;;4.43;;
24715;SDS011;12822;50.124;8.678;2022-11-15T12:27:19;6.35;;;3.88;;
24715;SDS011;12822;50.124;8.678;2022-11-15T12:29:46;9.25;;;3.70;;
24715;SDS011;12822;50.124;8.678;2022-11-15T12:34:48;5.60;;;3.30;;
24715;SDS011;12822;50.124;8.678;2022-11-15T12:42:40;9.00;;;3.22;;
24715;SDS011;12822;50.124;8.678;2022-11-15T12:50:14;5.13;;;3.38;;
24715;SDS011;12822;50.124;8.678;2022-11-15T12:53:04;5.03;;;3.22;;
24715;SDS011;12822;50.124;8.678;2022-11-15T12:55:30;6.97;;;4.20;;
24715;SDS011;12822;50.124;8.678;2022-11-15T12:57:56;7.15;;;4.13;;
24715;SDS011;12822;50.124;8.678;2022-11-15T13:00:42;6.38;;;3.88;;
24715;SDS011;12822;50.124;8.678;2022-11-15T13:03:22;10.20;;;3.47;;
24715;SDS011;12822;50.124;8.678;2022-11-15T13:05:53;10.55;;;4.60;;
24715;SDS011;12822;50.124;8.678;2022-11-15T13:08:37;11.25;;;4.25;;
24715;SDS011;12822;50.124;8.678;2022-11-15T13:13:47;7.53;;;3.78;;
24715;SDS011;12822;50.124;8.678;2022-11-15T13:16:18;6.07;;;3.95;;
24715;SDS011;12822;50.124;8.678;2022-11-15T13:18:53;9.60;;;3.20;;
24715;SDS011;12822;50.124;8.678;2022-11-15T13:21:23;9.57;;;3.22;;
24715;SDS011;12822;50.124;8.678;2022-11-15T13:24:12;9.85;;;3.35;;
24715;SDS011;12822;50.124;8.678;2022-11-15T13:26:39;4.45;;;2.88;;
24715;SDS011;12822;50.124;8.678;2022-11-15T13:29:13;4.30;;;2.90;;
24715;SDS011;12822;50.124;8.678;2022-11-15T13:31:41;6.28;;;3.30;;
24715;SDS011;12822;50.124;8.678;2022-11-15T13:36:52;4.78;;;2.72;;
24715;SDS011;12822;50.124;8.678;2022-11-15T13:39:29;4.65;;;3.00;;
24715;SDS011;12822;50.124;8.678;2022-11-15T13:41:56;6.03;;;2.78;;
24715;SDS011;12822;50.124;8.678;2022-11-15T13:44:29;8.00;;;2.75;;
24715;SDS011;12822;50.124;8.678;2022-11-15T13:47:03;3.75;;;2.50;;
24715;SDS011;12822;50.124;8.678;2022-11-15T13:49:30;3.92;;;2.47;;
24715;SDS011;12822;50.124;8.678;2022-11-15T13:51:57;6.15;;;3.00;;
24715;SDS011;12822;50.124;8.678;2022-11-15T13:54:28;4.30;;;2.40;;
24715;SDS011;12822;50.124;8.678;2022-11-15T13:57:05;3.58;;;2.25;;
24715;SDS011;12822;50.124;8.678;2022-11-15T13:59:35;5.85;;;2.30;;
24715;SDS011;12822;50.124;8.678;2022-11-15T14:02:03;4.53;;;2.42;;
24715;SDS011;12822;50.124;8.678;2022-11-15T14:04:36;6.97;;;2.35;;
24715;SDS011;12822;50.124;8.678;2022-11-15T14:07:04;3.22;;;2.05;;
24715;SDS011;12822;50.124;8.678;2022-11-15T14:09:36;5.63;;;2.58;;
24715;SDS011;12822;50.124;8.678;2022-11-15T14:14:45;4.20;;;1.98;;
24715;SDS011;12822;50.124;8.678;2022-11-15T14:19:56;6.70;;;2.30;;
24715;SDS011;12822;50.124;8.678;2022-11-15T14:22:24;3.47;;;2.10;;
24715;SDS011;12822;50.124;8.678;2022-11-15T14:27:35;7.75;;;2.05;;
24715;SDS011;12822;50.124;8.678;2022-11-15T14:30:02;5.30;;;2.13;;
24715;SDS011;12822;50.124;8.678;2022-11-15T14:32:29;3.72;;;2.40;;
24715;SDS011;12822;50.124;8.678;2022-11-15T14:34:56;2.78;;;1.88;;
24715;SDS011;12822;50.124;8.678;2022-11-15T14:37:24;5.30;;;2.15;;
24715;SDS011;12822;50.124;8.678;2022-11-15T14:39:51;4.38;;;2.15;;
24715;SDS011;12822;50.124;8.678;2022-11-15T14:42:17;3.15;;;2.10;;
24715;SDS011;12822;50.124;8.678;2022-11-15T14:44:43;5.20;;;2.13;;
24715;SDS011;12822;50.124;8.678;2022-11-15T14:47:09;4.93;;;1.92;;
24715;SDS011;12822;50.124;8.678;2022-11-15T14:49:35;4.43;;;2.10;;
24715;SDS011;12822;50.124;8.678;2022-11-15T14:52:01;5.63;;;2.65;;
24715;SDS011;12822;50.124;8.678;2022-11-15T14:54:31;4.72;;;2.55;;
24715;SDS011;12822;50.124;8.678;2022-11-15T14:56:57;6.18;;;3.25;;
24715;SDS011;12822;50.124;8.678;2022-11-15T14:59:23;6.57;;;2.83;;
24715;SDS011;12822;50.124;8.678;2022-11-15T15:01:49;5.85;;;3.10;;
24715;SDS011;12822;50.124;8.678;2022-11-15T15:04:15;5.57;;;3.00;;
24715;SDS011;12822;50.124;8.678;2022-11-15T15:06:41;8.15;;;3.20;;
24715;SDS011;12822;50.124;8.678;2022-11-15T15:09:07;7.07;;;3.13;;
24715;SDS011;12822;50.124;8.678;2022-11-15T15:11:33;12.18;;;5.68;;
24715;SDS011;12822;50.124;8.678;2022-11-15T15:13:59;28.95;;;10.85;;
24715;SDS011;12822;50.124;8.678;2022-11-15T15:16:26;19.17;;;8.40;;
24715;SDS011;12822;50.124;8.678;2022-11-15T15:18:52;11.63;;;4.78;;
24715;SDS011;12822;50.124;8.678;2022-11-15T15:21:22;9.23;;;4.72;;
24715;SDS011;12822;50.124;8.678;2022-11-15T15:23:49;9.20;;;4.45;;
24715;SDS011;12822;50.124;8.678;2022-11-15T15:26:15;9.93;;;4.57;;
24715;SDS011;12822;50.124;8.678;2022-11-15T15:28:41;14.98;;;5.25;;
24715;SDS011;12822;50.124;8.678;2022-11-15T15:31:07;8.90;;;4.05;;
24715;SDS011;12822;50.124;8.678;2022-11-15T15:33:34;13.50;;;4.93;;
24715;SDS011;12822;50.124;8.678;2022-11-15T15:36:00;14.98;;;5.13;;
24715;SDS011;12822;50.124;8.678;2022-11-15T15:38:26;12.27;;;4.43;;
24715;SDS011;12822;50.124;8.678;2022-11-15T15:40:52;10.23;;;4.82;;
24715;SDS011;12822;50.124;8.678;2022-11-15T15:43:18;9.00;;;4.30;;
24715;SDS011;12822;50.124;8.678;2022-11-15T15:45:44;10.25;;;5.18;;
24715;SDS011;12822;50.124;8.678;2022-11-15T15:48:11;9.88;;;4.30;;
24715;SDS011;12822;50.124;8.678;2022-11-15T15:50:38;6.93;;;3.97;;
24715;SDS011;12822;50.124;8.678;2022-11-15T15:53:07;12.80;;;4.40;;
24715;SDS011;12822;50.124;8.678;2022-11-15T15:55:35;7.17;;;4.50;;
24715;SDS011;12822;50.124;8.678;2022-11-15T15:58:01;11.38;;;4.60;;
24715;SDS011;12822;50.124;8.678;2022-11-15T16:00:28;11.45;;;5.00;;
24715;SDS011;12822;50.124;8.678;2022-11-15T16:02:54;9.80;;;4.65;;
24715;SDS011;12822;50.124;8.678;2022-11-15T16:05:20;7.10;;;4.38;;
24715;SDS011;12822;50.124;8.678;2022-11-15T16:07:46;7.32;;;4.63;;
24715;SDS011;12822;50.124;8.678;2022-11-15T16:10:23;10.48;;;4.93;;
24715;SDS011;12822;50.124;8.678;2022-11-15T16:12:52;10.75;;;5.00;;
24715;SDS011;12822;50.124;8.678;2022-11-15T16:15:18;12.65;;;5.00;;
24715;SDS011;12822;50.124;8.678;2022-11-15T16:17:50;12.68;;;5.50;;
24715;SDS011;12822;50.124;8.678;2022-11-15T16:23:02;9.32;;;4.85;;
24715;SDS011;12822;50.124;8.678;2022-11-15T16:25:28;8.85;;;4.60;;
24715;SDS011;12822;50.124;8.678;2022-11-15T16:27:56;6.72;;;4.55;;
24715;SDS011;12822;50.124;8.678;2022-11-15T16:30:22;17.60;;;4.55;;
24715;SDS011;12822;50.124;8.678;2022-11-15T16:32:48;9.55;;;5.40;;
24715;SDS011;12822;50.124;8.678;2022-11-15T16:35:15;8.77;;;4.82;;
24715;SDS011;12822;50.124;8.678;2022-11-15T16:37:41;12.52;;;4.93;;
24715;SDS011;12822;50.124;8.678;2022-11-15T16:40:24;15.00;;;5.53;;
24715;SDS011;12822;50.124;8.678;2022-11-15T16:42:50;10.03;;;4.70;;
24715;SDS011;12822;50.124;8.678;2022-11-15T16:45:16;9.30;;;4.50;;
24715;SDS011;12822;50.124;8.678;2022-11-15T16:47:42;6.35;;;3.83;;
24715;SDS011;12822;50.124;8.678;2022-11-15T16:50:19;9.43;;;4.30;;
24715;SDS011;12822;50.124;8.678;2022-11-15T16:52:48;11.77;;;5.28;;
24715;SDS011;12822;50.124;8.678;2022-11-15T16:55:14;12.48;;;5.10;;
24715;SDS011;12822;50.124;8.678;2022-11-15T16:57:40;8.95;;;4.75;;
24715;SDS011;12822;50.124;8.678;2022-11-15T17:00:07;10.68;;;4.65;;
24715;SDS011;12822;50.124;8.678;2022-11-15T17:02:33;11.10;;;4.22;;
24715;SDS011;12822;50.124;8.678;2022-11-15T17:04:59;10.38;;;4.60;;
24715;SDS011;12822;50.124;8.678;2022-11-15T17:07:25;9.20;;;4.68;;
24715;SDS011;12822;50.124;8.678;2022-11-15T17:09:51;7.13;;;4.38;;
24715;SDS011;12822;50.124;8.678;2022-11-15T17:12:17;10.35;;;5.43;;
24715;SDS011;12822;50.124;8.678;2022-11-15T17:14:43;25.10;;;5.78;;
24715;SDS011;12822;50.124;8.678;2022-11-15T17:17:11;10.20;;;5.07;;
24715;SDS011;12822;50.124;8.678;2022-11-15T17:19:37;11.90;;;4.82;;
24715;SDS011;12822;50.124;8.678;2022-11-15T17:22:03;7.40;;;4.32;;
24715;SDS011;12822;50.124;8.678;2022-11-15T17:24:29;10.98;;;4.40;;
24715;SDS011;12822;50.124;8.678;2022-11-15T17:26:55;11.63;;;4.55;;
24715;SDS011;12822;50.124;8.678;2022-11-15T17:29:21;11.70;;;4.38;;
24715;SDS011;12822;50.124;8.678;2022-11-15T17:31:47;14.60;;;5.22;;
24715;SDS011;12822;50.124;8.678;2022-11-15T17:34:13;7.95;;;4.30;;
24715;SDS011;12822;50.124;8.678;2022-11-15T17:36:39;7.60;;;4.20;;
24715;SDS011;12822;50.124;8.678;2022-11-15T17:39:05;14.50;;;4.40;;
24715;SDS011;12822;50.124;8.678;2022-11-15T17:41:31;7.60;;;4.20;;
24715;SDS011;12822;50.124;8.678;2022-11-15T17:43:57;7.20;;;4.18;;
24715;SDS011;12822;50.124;8.678;2022-11-15T17:46:23;9.93;;;4.50;;
24715;SDS011;12822;50.124;8.678;2022-11-15T17:48:49;13.93;;;4.40;;
24715;SDS011;12822;50.124;8.678;2022-11-15T17:51:16;10.07;;;4.90;;
24715;SDS011;12822;50.124;8.678;2022-11-15T17:53:44;11.20;;;5.00;;
24715;SDS011;12822;50.124;8.678;2022-11-15T17:56:14;11.50;;;4.72;;
24715;SDS011;12822;50.124;8.678;2022-11-15T17:58:41;8.45;;;4.50;;
24715;SDS011;12822;50.124;8.678;2022-11-15T18:01:08;9.65;;;4.32;;
24715;SDS011;12822;50.124;8.678;2022-11-15T18:03:37;13.63;;;5.28;;
24715;SDS011;12822;50.124;8.678;2022-11-15T18:06:04;10.90;;;5.32;;
24715;SDS011;12822;50.124;8.678;2022-11-15T18:08:30;9.77;;;4.80;;
24715;SDS011;12822;50.124;8.678;2022-11-15T18:13:35;9.07;;;4.63;;
24715;SDS011;12822;50.124;8.678;2022-11-15T18:16:02;11.60;;;4.95;;
24715;SDS011;12822;50.124;8.678;2022-11-15T18:18:29;15.30;;;4.53;;
24715;SDS011;12822;50.124;8.678;2022-11-15T18:21:02;12.15;;;4.53;;
24715;SDS011;12822;50.124;8.678;2022-11-15T18:23:29;9.73;;;4.75;;
24715;SDS011;12822;50.124;8.678;2022-11-15T18:25:55;8.55;;;4.80;;
24715;SDS011;12822;50.124;8.678;2022-11-15T18:28:21;13.70;;;5.45;;
24715;SDS011;12822;50.124;8.678;2022-11-15T18:30:47;13.68;;;5.25;;
24715;SDS011;12822;50.124;8.678;2022-11-15T18:33:13;11.07;;;5.05;;
24715;SDS011;12822;50.124;8.678;2022-11-15T18:35:39;11.63;;;6.03;;
24715;SDS011;12822;50.124;8.678;2022-11-15T18:38:05;12.40;;;5.47;;
24715;SDS011;12822;50.124;8.678;2022-11-15T18:40:34;14.52;;;6.15;;
24715;SDS011;12822;50.124;8.678;2022-11-15T18:43:00;11.65;;;5.30;;
24715;SDS011;12822;50.124;8.678;2022-11-15T18:45:26;13.38;;;5.50;;
24715;SDS011;12822;50.124;8.678;2022-11-15T18:47:52;9.15;;;4.63;;
24715;SDS011;12822;50.124;8.678;2022-11-15T18:50:18;13.48;;;5.57;;
24715;SDS011;12822;50.124;8.678;2022-11-15T18:52:44;10.60;;;5.05;;
24715;SDS011;12822;50.124;8.678;2022-11-15T18:55:10;14.85;;;6.88;;
24715;SDS011;12822;50.124;8.678;2022-11-15T18:57:37;12.32;;;4.75;;
24715;SDS011;12822;50.124;8.678;2022-11-15T19:00:03;15.32;;;5.53;;
24715;SDS011;12822;50.124;8.678;2022-11-15T19:02:29;12.82;;;5.25;;
24715;SDS011;12822;50.124;8.678;2022-11-15T19:04:55;15.88;;;5.88;;
24715;SDS011;12822;50.124;8.678;2022-11-15T19:07:24;13.90;;;5.22;;
24715;SDS011;12822;50.124;8.678;2022-11-15T19:09:55;9.13;;;5.15;;
24715;SDS011;12822;50.124;8.678;2022-11-15T19:12:21;8.63;;;5.28;;
24715;SDS011;12822;50.124;8.678;2022-11-15T19:14:47;8.75;;;4.80;;
24715;SDS011;12822;50.124;8.678;2022-11-15T19:17:13;14.38;;;6.13;;
24715;SDS011;12822;50.124;8.678;2022-11-15T19:19:39;17.85;;;8.00;;
24715;SDS011;12822;50.124;8.678;2022-11-15T19:22:05;12.50;;;6.72;;
24715;SDS011;12822;50.124;8.678;2022-11-15T19:24:31;14.65;;;6.78;;
24715;SDS011;12822;50.124;8.678;2022-11-15T19:26:57;13.30;;;6.30;;
24715;SDS011;12822;50.124;8.678;2022-11-15T19:29:23;12.18;;;6.45;;
24715;SDS011;12822;50.124;8.678;2022-11-15T19:31:49;13.70;;;6.57;;
24715;SDS011;12822;50.124;8.678;2022-11-15T19:34:15;13.15;;;5.72;;
24715;SDS011;12822;50.124;8.678;2022-11-15T19:36:42;15.32;;;6.95;;
24715;SDS011;12822;50.124;8.678;2022-11-15T19:39:09;12.57;;;6.88;;
24715;SDS011;12822;50.124;8.678;2022-11-15T19:41:39;13.60;;;7.07;;
24715;SDS011;12822;50.124;8.678;2022-11-15T19:44:06;12.65;;;6.75;;
24715;SDS011;12822;50.124;8.678;2022-11-15T19:46:32;12.98;;;6.82;;
24715;SDS011;12822;50.124;8.678;2022-11-15T19:48:59;13.65;;;6.25;;
24715;SDS011;12822;50.124;8.678;2022-11-15T19:51:26;13.90;;;5.85;;
24715;SDS011;12822;50.124;8.678;2022-11-15T19:53:55;20.95;;;8.15;;
24715;SDS011;12822;50.124;8.678;2022-11-15T19:56:22;27.02;;;7.15;;
24715;SDS011;12822;50.124;8.678;2022-11-15T19:58:49;12.68;;;6.15;;
24715;SDS011;12822;50.124;8.678;2022-11-15T20:01:23;12.38;;;6.38;;
24715;SDS011;12822;50.124;8.678;2022-11-15T20:03:50;10.20;;;6.28;;
24715;SDS011;12822;50.124;8.678;2022-11-15T20:06:19;14.70;;;5.68;;
24715;SDS011;12822;50.124;8.678;2022-11-15T20:08:46;11.00;;;5.97;;
24715;SDS011;12822;50.124;8.678;2022-11-15T20:11:12;8.52;;;5.78;;
24715;SDS011;12822;50.124;8.678;2022-11-15T20:13:39;14.88;;;6.00;;
24715;SDS011;12822;50.124;8.678;2022-11-15T20:16:05;8.70;;;5.57;;
24715;SDS011;12822;50.124;8.678;2022-11-15T20:18:32;9.57;;;5.50;;
24715;SDS011;12822;50.124;8.678;2022-11-15T20:20:58;10.88;;;6.50;;
24715;SDS011;12822;50.124;8.678;2022-11-15T20:23:25;10.65;;;5.60;;
24715;SDS011;12822;50.124;8.678;2022-11-15T20:25:51;11.43;;;5.68;;
24715;SDS011;12822;50.124;8.678;2022-11-15T20:28:19;10.85;;;5.72;;
24715;SDS011;12822;50.124;8.678;2022-11-15T20:30:46;10.95;;;6.10;;
24715;SDS011;12822;50.124;8.678;2022-11-15T20:33:12;11.60;;;6.93;;
24715;SDS011;12822;50.124;8.678;2022-11-15T20:35:39;11.85;;;6.68;;
24715;SDS011;12822;50.124;8.678;2022-11-15T20:38:06;12.35;;;5.68;;
24715;SDS011;12822;50.124;8.678;2022-11-15T20:40:32;14.52;;;6.55;;
24715;SDS011;12822;50.124;8.678;2022-11-15T20:42:58;12.50;;;6.53;;
24715;SDS011;12822;50.124;8.678;2022-11-15T20:45:24;9.57;;;6.22;;
24715;SDS011;12822;50.124;8.678;2022-11-15T20:47:53;13.55;;;6.43;;
24715;SDS011;12822;50.124;8.678;2022-11-15T20:50:19;12.93;;;6.32;;
24715;SDS011;12822;50.124;8.678;2022-11-15T20:52:45;11.90;;;6.07;;
24715;SDS011;12822;50.124;8.678;2022-11-15T20:55:11;11.40;;;5.93;;
24715;SDS011;12822;50.124;8.678;2022-11-15T20:57:37;11.18;;;5.60;;
24715;SDS011;12822;50.124;8.678;2022-11-15T21:00:04;17.92;;;6.57;;
24715;SDS011;12822;50.124;8.678;2022-11-15T21:02:30;12.20;;;6.55;;
24715;SDS011;12822;50.124;8.678;2022-11-15T21:04:57;14.80;;;7.05;;
24715;SDS011;12822;50.124;8.678;2022-11-15T21:07:23;10.55;;;6.65;;
24715;SDS011;12822;50.124;8.678;2022-11-15T21:09:49;17.63;;;7.30;;
24715;SDS011;12822;50.124;8.678;2022-11-15T21:12:34;13.88;;;6.55;;
24715;SDS011;12822;50.124;8.678;2022-11-15T21:15:00;12.38;;;6.72;;
24715;SDS011;12822;50.124;8.678;2022-11-15T21:17:26;14.57;;;7.07;;
24715;SDS011;12822;50.124;8.678;2022-11-15T21:19:52;11.52;;;6.90;;
24715;SDS011;12822;50.124;8.678;2022-11-15T21:22:18;15.10;;;7.40;;
24715;SDS011;12822;50.124;8.678;2022-11-15T21:24:44;15.18;;;7.80;;
24715;SDS011;12822;50.124;8.678;2022-11-15T21:27:13;15.20;;;7.63;;
24715;SDS011;12822;50.124;8.678;2022-11-15T21:29:46;12.18;;;7.38;;
24715;SDS011;12822;50.124;8.678;2022-11-15T21:32:15;18.30;;;7.78;;
24715;SDS011;12822;50.124;8.678;2022-11-15T21:34:43;13.10;;;7.47;;
24715;SDS011;12822;50.124;8.678;2022-11-15T21:37:09;17.98;;;7.47;;
24715;SDS011;12822;50.124;8.678;2022-11-15T21:39:36;12.30;;;7.97;;
24715;SDS011;12822;50.124;8.678;2022-11-15T21:42:02;15.00;;;7.35;;
24715;SDS011;12822;50.124;8.678;2022-11-15T21:44:28;15.48;;;7.57;;
24715;SDS011;12822;50.124;8.678;2022-11-15T21:46:55;15.25;;;7.72;;
24715;SDS011;12822;50.124;8.678;2022-11-15T21:49:21;15.13;;;7.78;;
24715;SDS011;12822;50.124;8.678;2022-11-15T21:51:47;14.57;;;7.82;;
24715;SDS011;12822;50.124;8.678;2022-11-15T21:54:14;16.77;;;7.32;;
24715;SDS011;12822;50.124;8.678;2022-11-15T21:56:41;11.45;;;7.00;;
24715;SDS011;12822;50.124;8.678;2022-11-15T21:59:08;17.42;;;6.90;;
24715;SDS011;12822;50.124;8.678;2022-11-15T22:01:34;12.55;;;7.55;;
24715;SDS011;12822;50.124;8.678;2022-11-15T22:04:19;12.50;;;7.15;;
24715;SDS011;12822;50.124;8.678;2022-11-15T22:06:48;11.57;;;7.07;;
24715;SDS011;12822;50.124;8.678;2022-11-15T22:09:14;11.65;;;6.95;;
24715;SDS011;12822;50.124;8.678;2022-11-15T22:11:40;12.73;;;7.28;;
24715;SDS011;12822;50.124;8.678;2022-11-15T22:14:06;13.43;;;7.60;;
24715;SDS011;12822;50.124;8.678;2022-11-15T22:16:32;15.90;;;7.50;;
24715;SDS011;12822;50.124;8.678;2022-11-15T22:18:59;10.68;;;6.70;;
24715;SDS011;12822;50.124;8.678;2022-11-15T22:21:25;17.52;;;6.97;;
24715;SDS011;12822;50.124;8.678;2022-11-15T22:23:51;14.57;;;6.75;;
24715;SDS011;12822;50.124;8.678;2022-11-15T22:26:20;12.80;;;6.82;;
24715;SDS011;12822;50.124;8.678;2022-11-15T22:28:49;12.40;;;7.03;;
24715;SDS011;12822;50.124;8.678;2022-11-15T22:31:16;12.93;;;6.30;;
24715;SDS011;12822;50.124;8.678;2022-11-15T22:33:42;11.55;;;7.13;;
24715;SDS011;12822;50.124;8.678;2022-11-15T22:36:09;13.60;;;5.93;;
24715;SDS011;12822;50.124;8.678;2022-11-15T22:38:35;8.35;;;6.20;;
24715;SDS011;12822;50.124;8.678;2022-11-15T22:41:07;15.15;;;6.80;;
24715;SDS011;12822;50.124;8.678;2022-11-15T22:43:33;11.68;;;6.13;;
24715;SDS011;12822;50.124;8.678;2022-11-15T22:46:00;11.32;;;6.30;;
24715;SDS011;12822;50.124;8.678;2022-11-15T22:48:30;11.18;;;6.80;;
24715;SDS011;12822;50.124;8.678;2022-11-15T22:50:57;12.48;;;6.50;;
24715;SDS011;12822;50.124;8.678;2022-11-15T22:53:23;11.63;;;6.05;;
24715;SDS011;12822;50.124;8.678;2022-11-15T22:55:59;10.07;;;5.90;;
24715;SDS011;12822;50.124;8.678;2022-11-15T22:58:26;11.13;;;6.32;;
24715;SDS011;12822;50.124;8.678;2022-11-15T23:00:53;14.30;;;6.22;;
24715;SDS011;12822;50.124;8.678;2022-11-15T23:03:20;14.30;;;6.55;;
24715;SDS011;12822;50.124;8.678;2022-11-15T23:05:46;10.25;;;6.22;;
24715;SDS011;12822;50.124;8.678;2022-11-15T23:08:13;8.48;;;5.57;;
24715;SDS011;12822;50.124;8.678;2022-11-15T23:10:40;12.55;;;6.72;;
24715;SDS011;12822;50.124;8.678;2022-11-15T23:13:25;10.40;;;5.53;;
24715;SDS011;12822;50.124;8.678;2022-11-15T23:15:58;9.52;;;6.35;;
24715;SDS011;12822;50.124;8.678;2022-11-15T23:18:43;11.18;;;5.93;;
24715;SDS011;12822;50.124;8.678;2022-11-15T23:21:10;7.97;;;5.85;;
24715;SDS011;12822;50.124;8.678;2022-11-15T23:23:37;10.50;;;6.43;;
24715;SDS011;12822;50.124;8.678;2022-11-15T23:26:03;11.13;;;6.15;;
24715;SDS011;12822;50.124;8.678;2022-11-15T23:28:37;9.82;;;5.82;;
24715;SDS011;12822;50.124;8.678;2022-11-15T23:31:06;11.93;;;5.38;;
24715;SDS011;12822;50.124;8.678;2022-11-15T23:33:51;12.65;;;5.45;;
24715;SDS011;12822;50.124;8.678;2022-11-15T23:36:24;9.82;;;5.13;;
24715;SDS011;12822;50.124;8.678;2022-11-15T23:38:50;9.52;;;5.88;;
24715;SDS011;12822;50.124;8.678;2022-11-15T23:41:17;11.52;;;6.80;;
24715;SDS011;12822;50.124;8.678;2022-11-15T23:43:43;10.77;;;5.95;;
24715;SDS011;12822;50.124;8.678;2022-11-15T23:46:09;10.27;;;6.20;;
24715;SDS011;12822;50.124;8.678;2022-11-15T23:48:35;9.15;;;5.30;;
24715;SDS011;12822;50.124;8.678;2022-11-15T23:51:01;13.93;;;6.28;;
24715;SDS011;12822;50.124;8.678;2022-11-15T23:53:27;11.23;;;5.70;;
24715;SDS011;12822;50.124;8.678;2022-11-15T23:55:57;10.30;;;5.90;;
24715;SDS011;12822;50.124;8.678;2022-11-15T23:58:24;8.45;;;5.55;;
